Time;durP1;ratioP1;P1;durP2;ratioP2;P2;SDS_P1;SDS_P2;PMS_P1;PMS_P2;Temp;Humidity;BMP_temperature;BMP_pressure;BME280_temperature;BME280_humidity;BME280_pressure;Samples;Min_cycle;Max_cycle;Signal;HPM_P1;HPM_P2
2023/02/12 00:02:42;;;;;;;;;;;;;;;5.00;48.28;102383.78;5013214;28;19914;-72
2023/02/12 00:05:34;;;;;;;;;;;;;;;4.28;49.13;102388.56;5013570;28;20366;-72
2023/02/12 00:08:26;;;;;;;;;;;;;;;4.42;50.56;102381.13;5016609;28;19917;-72
2023/02/12 00:11:18;;;;;;;;;;;;;;;4.26;49.67;102374.53;5022873;28;20304;-72
2023/02/12 00:14:10;;;;;;;;;;;;;;;3.99;50.29;102379.50;5022777;28;19913;-72
2023/02/12 00:17:02;;;;;;;;;;;;;;;4.16;49.48;102382.38;5011812;28;19913;-72
2023/02/12 00:19:54;;;;;;;;;;;;;;;4.36;49.72;102380.16;5023304;28;19913;-72
2023/02/12 00:22:46;;;;;;;;;;;;;;;4.80;49.56;102376.06;5004382;28;19913;-72
2023/02/12 00:25:41;;;;;;;;;;;;;;;4.56;49.21;102380.66;5016530;28;20390;-72
2023/02/12 00:28:33;;;;;;;;;;;;;;;4.28;49.12;102384.00;5010364;28;19917;-72
2023/02/12 00:31:25;;;;;;;;;;;;;;;4.03;51.05;102385.25;4997420;28;21363;-72
2023/02/12 00:34:17;;;;;;;;;;;;;;;3.83;51.00;102380.16;5014042;28;19914;-72
2023/02/12 00:37:07;;;;;;;;;;;;;;;3.72;51.48;102375.56;4996293;28;19913;-72
2023/02/12 00:39:54;;;;;;;;;;;;;;;3.66;51.21;102377.28;4999715;28;19913;-72
2023/02/12 00:42:43;;;;;;;;;;;;;;;3.65;51.55;102380.22;4993438;28;19914;-73
2023/02/12 00:45:28;;;;;;;;;;;;;;;3.91;51.85;102377.16;4978789;28;19918;-72
2023/02/12 00:48:18;;;;;;;;;;;;;;;4.34;50.81;102387.66;5012887;28;19914;-71
2023/02/12 00:51:03;;;;;;;;;;;;;;;4.16;50.72;102385.06;5003458;28;19914;-72
2023/02/12 00:53:55;;;;;;;;;;;;;;;4.01;50.08;102388.19;4999617;28;19913;-72
2023/02/12 00:56:44;;;;;;;;;;;;;;;4.07;50.11;102386.41;5010534;28;19913;-72
2023/02/12 00:59:34;;;;;;;;;;;;;;;3.90;51.08;102388.97;5035237;28;19913;-72
2023/02/12 01:02:26;;;;;;;;;;;;;;;4.49;51.27;102400.66;5010108;28;19913;-72
2023/02/12 01:05:18;;;;;;;;;;;;;;;4.67;50.44;102392.47;4993323;28;19913;-72
2023/02/12 01:08:11;;;;;;;;;;;;;;;4.81;49.22;102388.50;5005608;28;19913;-72
2023/02/12 01:11:01;;;;;;;;;;;;;;;3.93;50.93;102390.38;5007480;28;19917;-72
2023/02/12 01:13:51;;;;;;;;;;;;;;;4.01;50.77;102390.88;5006048;28;19913;-71
2023/02/12 01:16:40;;;;;;;;;;;;;;;4.02;51.25;102387.13;5025354;28;19913;-72
2023/02/12 01:19:25;;;;;;;;;;;;;;;3.72;51.51;102384.47;5028550;28;19912;-72
2023/02/12 01:22:16;;;;;;;;;;;;;;;3.85;52.11;102378.06;5032390;28;19913;-72
2023/02/12 01:25:04;;;;;;;;;;;;;;;4.11;50.71;102376.84;4995952;28;19917;-72
2023/02/12 01:27:54;;;;;;;;;;;;;;;4.42;51.05;102378.44;5021684;28;20286;-72
2023/02/12 01:30:46;;;;;;;;;;;;;;;4.53;50.07;102359.56;5019107;28;19917;-72
2023/02/12 01:33:38;;;;;;;;;;;;;;;3.98;50.21;102361.72;5012734;28;19921;-72
2023/02/12 01:36:31;;;;;;;;;;;;;;;4.25;50.78;102352.19;5008555;28;19913;-72
2023/02/12 01:39:16;;;;;;;;;;;;;;;3.73;51.10;102359.19;5006661;28;19913;-72
2023/02/12 01:42:05;;;;;;;;;;;;;;;4.01;51.54;102350.50;5007121;28;19914;-73
2023/02/12 01:45:11;;;;;;;;;;;;;;;3.71;52.94;102347.00;5028791;28;20290;-73
2023/02/12 01:48:03;;;;;;;;;;;;;;;4.21;51.09;102345.63;4972103;28;19913;-72
2023/02/12 01:50:56;;;;;;;;;;;;;;;4.51;51.12;102342.00;4988662;28;19918;-73
2023/02/12 01:53:46;;;;;;;;;;;;;;;4.08;51.06;102356.59;4998937;28;19921;-72
2023/02/12 01:56:33;;;;;;;;;;;;;;;3.97;50.72;102338.53;5022144;28;19913;-73
2023/02/12 01:59:20;;;;;;;;;;;;;;;4.08;50.89;102339.63;5000716;28;19912;-72
2023/02/12 02:02:10;;;;;;;;;;;;;;;3.59;51.47;102335.41;5010740;28;19913;-73
2023/02/12 02:04:58;;;;;;;;;;;;;;;3.68;51.47;102340.25;5035260;28;19913;-73
2023/02/12 02:07:48;;;;;;;;;;;;;;;3.25;52.74;102335.03;5013793;28;19913;-72
2023/02/12 02:10:38;;;;;;;;;;;;;;;3.55;51.61;102334.25;5024049;28;19917;-73
2023/02/12 02:16:36;;;;;;;;;;;;;;;3.15;52.96;102350.06;5019085;28;20187;-71
2023/02/12 02:19:23;;;;;;;;;;;;;;;3.41;52.97;102342.47;5022657;28;19921;-70
2023/02/12 02:22:29;;;;;;;;;;;;;;;3.64;51.81;102339.06;5010938;28;19913;-70
2023/02/12 02:25:35;;;;;;;;;;;;;;;3.76;52.13;102331.81;5023614;28;20321;-70
2023/02/12 02:28:42;;;;;;;;;;;;;;;3.61;51.49;102327.91;5026774;28;19913;-70
2023/02/12 02:31:44;;;;;;;;;;;;;;;3.87;51.34;102320.28;5023465;28;19913;-71
2023/02/12 02:34:49;;;;;;;;;;;;;;;4.17;52.39;102314.00;5026305;28;19917;-70
2023/02/12 02:37:58;;;;;;;;;;;;;;;4.04;50.66;102315.06;5005143;28;19914;-70
2023/02/12 02:40:52;;;;;;;;;;;;;;;3.77;51.34;102309.25;5012506;28;19913;-71
2023/02/12 02:43:45;;;;;;;;;;;;;;;4.08;51.27;102296.56;5024936;28;19917;-71
2023/02/12 02:46:55;;;;;;;;;;;;;;;4.39;51.32;102292.69;5023108;28;19913;-71
2023/02/12 02:49:46;;;;;;;;;;;;;;;4.35;49.59;102292.34;5012310;28;19921;-71
2023/02/12 02:52:39;;;;;;;;;;;;;;;4.32;50.76;102288.25;5027972;28;19917;-71
2023/02/12 02:55:34;;;;;;;;;;;;;;;4.40;50.04;102287.09;5020852;28;20309;-70
2023/02/12 02:58:34;;;;;;;;;;;;;;;3.85;51.30;102290.09;5004380;28;19917;-71
2023/02/12 03:01:25;;;;;;;;;;;;;;;4.18;51.17;102281.47;4999019;28;19917;-70
2023/02/12 03:04:17;;;;;;;;;;;;;;;4.52;49.64;102279.00;5034894;28;19917;-70
2023/02/12 03:07:11;;;;;;;;;;;;;;;3.93;50.65;102280.88;5015986;28;19912;-70
2023/02/12 03:10:03;;;;;;;;;;;;;;;3.94;51.45;102282.50;5011787;28;19917;-70
2023/02/12 03:12:56;;;;;;;;;;;;;;;3.97;51.66;102281.22;5011954;28;19914;-71
2023/02/12 03:15:52;;;;;;;;;;;;;;;1.97;57.39;102282.31;4997431;28;19914;-70
2023/02/12 03:18:45;;;;;;;;;;;;;;;2.14;58.01;102278.84;5029517;28;20421;-70
2023/02/12 03:21:34;;;;;;;;;;;;;;;2.95;55.66;102293.88;5004179;28;19913;-70
2023/02/12 03:24:34;;;;;;;;;;;;;;;3.59;54.30;102289.69;5022708;28;19917;-70
2023/02/12 03:27:25;;;;;;;;;;;;;;;3.77;53.73;102284.22;5019043;28;19913;-70
2023/02/12 03:30:16;;;;;;;;;;;;;;;4.32;53.99;102261.31;5029203;28;20369;-70
2023/02/12 03:33:13;;;;;;;;;;;;;;;4.01;52.29;102269.78;5036661;28;19917;-70
2023/02/12 03:36:22;;;;;;;;;;;;;;;4.58;53.78;102269.94;5037743;28;19913;-70
2023/02/12 03:39:17;;;;;;;;;;;;;;;4.83;50.41;102265.09;4982774;28;20325;-70
2023/02/12 03:42:13;;;;;;;;;;;;;;;4.96;52.40;102270.22;5003559;28;20317;-70
2023/02/12 03:45:18;;;;;;;;;;;;;;;4.79;50.27;102266.63;5023061;28;19913;-70
2023/02/12 03:48:11;;;;;;;;;;;;;;;4.79;51.06;102257.72;5012101;28;19914;-70
2023/02/12 03:51:13;;;;;;;;;;;;;;;4.23;50.81;102268.13;5019272;28;19921;-70
2023/02/12 03:54:03;;;;;;;;;;;;;;;4.44;52.17;102257.78;5006558;28;19913;-69
2023/02/12 03:57:03;;;;;;;;;;;;;;;4.24;50.10;102268.94;4997115;28;20379;-70
2023/02/12 03:59:53;;;;;;;;;;;;;;;3.64;51.91;102273.69;5021791;28;19913;-70
2023/02/12 04:02:44;;;;;;;;;;;;;;;4.02;52.85;102281.31;5015172;28;20301;-70
2023/02/12 04:05:36;;;;;;;;;;;;;;;3.71;51.83;102290.53;4999608;28;19921;-70
2023/02/12 04:08:27;;;;;;;;;;;;;;;2.86;53.95;102295.22;5013860;28;19913;-70
2023/02/12 04:11:28;;;;;;;;;;;;;;;3.50;52.38;102305.34;4999082;28;20314;-70
2023/02/12 04:14:42;;;;;;;;;;;;;;;2.95;53.50;102296.53;5007969;28;19913;-70
2023/02/12 04:17:46;;;;;;;;;;;;;;;2.73;56.65;102287.34;4984881;28;20394;-70
2023/02/12 04:20:54;;;;;;;;;;;;;;;3.49;53.90;102282.19;5004243;28;19913;-70
2023/02/12 04:23:49;;;;;;;;;;;;;;;3.73;53.92;102288.44;5006817;28;19921;-70
2023/02/12 04:26:49;;;;;;;;;;;;;;;3.56;52.55;102290.97;5019513;28;20294;-70
2023/02/12 04:29:48;;;;;;;;;;;;;;;3.69;53.04;102301.53;5005333;28;20527;-70
2023/02/12 04:32:48;;;;;;;;;;;;;;;4.28;54.35;102292.47;5006454;28;20374;-70
2023/02/12 04:35:41;;;;;;;;;;;;;;;4.64;53.51;102271.69;5012504;28;20390;-70
2023/02/12 04:38:37;;;;;;;;;;;;;;;4.26;51.00;102272.22;5017201;28;20278;-70
2023/02/12 04:41:26;;;;;;;;;;;;;;;3.88;51.56;102275.34;5000849;28;19918;-70
2023/02/12 04:44:35;;;;;;;;;;;;;;;3.54;51.63;102284.19;5018429;28;19913;-70
2023/02/12 04:47:27;;;;;;;;;;;;;;;3.37;51.94;102279.44;5020756;28;19913;-70
2023/02/12 04:50:19;;;;;;;;;;;;;;;3.27;52.61;102276.50;5020197;28;20374;-70
2023/02/12 04:53:11;;;;;;;;;;;;;;;3.19;52.45;102266.06;5029387;28;19913;-70
2023/02/12 04:56:03;;;;;;;;;;;;;;;3.38;53.38;102278.41;5016351;28;19917;-70
2023/02/12 04:58:52;;;;;;;;;;;;;;;2.88;52.70;102277.84;4994360;28;19913;-70
2023/02/12 05:01:44;;;;;;;;;;;;;;;3.23;52.70;102269.94;5008674;28;19913;-70
2023/02/12 05:04:31;;;;;;;;;;;;;;;3.07;52.79;102278.63;5003948;28;19913;-70
2023/02/12 05:07:20;;;;;;;;;;;;;;;2.10;55.42;102276.81;5003066;28;19913;-69
2023/02/12 05:10:08;;;;;;;;;;;;;;;2.31;56.08;102283.66;5013800;28;19921;-70
2023/02/12 05:12:57;;;;;;;;;;;;;;;2.65;56.29;102290.28;5021034;28;19913;-70
2023/02/12 05:15:49;;;;;;;;;;;;;;;2.81;54.14;102289.69;5024718;28;19913;-70
2023/02/12 05:18:41;;;;;;;;;;;;;;;3.04;52.66;102280.97;5013765;28;19913;-69
2023/02/12 05:21:33;;;;;;;;;;;;;;;3.20;53.36;102283.03;4999951;28;19913;-70
2023/02/12 05:24:25;;;;;;;;;;;;;;;3.75;54.48;102286.34;5001707;28;19918;-70
2023/02/12 05:27:09;;;;;;;;;;;;;;;4.00;54.60;102281.59;5006120;28;19921;-70
2023/02/12 05:29:57;;;;;;;;;;;;;;;2.92;52.30;102278.22;5019619;28;19918;-70
2023/02/12 05:32:46;;;;;;;;;;;;;;;3.11;53.92;102268.25;5008847;28;20370;-71
2023/02/12 05:35:38;;;;;;;;;;;;;;;2.59;53.72;102262.50;5032806;28;19928;-70
2023/02/12 05:38:25;;;;;;;;;;;;;;;2.51;54.69;102263.59;5038885;28;19913;-70
2023/02/12 05:41:21;;;;;;;;;;;;;;;2.87;53.77;102270.81;5014311;28;19913;-71
2023/02/12 05:44:10;;;;;;;;;;;;;;;2.59;54.64;102268.66;5022183;28;19913;-71
2023/02/12 05:47:00;;;;;;;;;;;;;;;2.29;55.58;102261.56;5030733;28;20423;-73
2023/02/12 05:49:47;;;;;;;;;;;;;;;2.15;56.34;102268.94;5009317;28;19921;-73
2023/02/12 05:52:39;;;;;;;;;;;;;;;2.23;56.51;102276.72;5004620;28;20302;-73
2023/02/12 05:55:31;;;;;;;;;;;;;;;2.23;56.02;102270.53;5029395;28;19917;-72
2023/02/12 05:58:20;;;;;;;;;;;;;;;2.36;56.59;102276.56;5023050;28;20377;-73
2023/02/12 06:01:19;;;;;;;;;;;;;;;2.41;55.52;102286.63;5016022;28;19913;-73
2023/02/12 06:04:12;;;;;;;;;;;;;;;2.27;56.02;102285.13;5027399;28;19913;-71
2023/02/12 06:07:02;;;;;;;;;;;;;;;2.43;55.65;102288.06;5027617;28;19914;-71
2023/02/12 06:09:49;;;;;;;;;;;;;;;2.34;56.15;102289.38;5011713;28;20386;-73
2023/02/12 06:12:39;;;;;;;;;;;;;;;2.52;55.89;102286.72;5001465;28;19913;-72
2023/02/12 06:15:31;;;;;;;;;;;;;;;2.59;55.10;102297.41;5018495;28;20638;-72
2023/02/12 06:18:20;;;;;;;;;;;;;;;2.65;56.46;102312.59;5017155;28;19914;-73
2023/02/12 06:21:12;;;;;;;;;;;;;;;2.36;55.92;102322.19;5017302;28;19913;-72
2023/02/12 06:24:04;;;;;;;;;;;;;;;2.43;56.10;102322.97;5019085;28;20290;-72
2023/02/12 06:26:56;;;;;;;;;;;;;;;2.46;55.47;102325.19;5001881;28;20294;-72
2023/02/12 06:29:43;;;;;;;;;;;;;;;2.69;56.15;102318.38;5005482;28;20401;-72
2023/02/12 06:32:34;;;;;;;;;;;;;;;2.97;54.21;102332.91;5002197;28;19913;-72
2023/02/12 06:35:26;;;;;;;;;;;;;;;2.77;54.85;102340.38;4996267;28;19918;-72
2023/02/12 06:38:19;;;;;;;;;;;;;;;3.13;54.38;102336.03;5018865;28;19914;-72
2023/02/12 06:41:10;;;;;;;;;;;;;;;3.11;53.65;102346.16;5001865;28;20301;-71
2023/02/12 06:44:02;;;;;;;;;;;;;;;2.92;54.29;102350.75;5000746;28;19913;-72
2023/02/12 06:46:52;;;;;;;;;;;;;;;3.19;53.84;102348.56;5003953;28;19913;-72
2023/02/12 06:49:44;;;;;;;;;;;;;;;3.37;53.60;102353.91;5001394;28;19917;-72
2023/02/12 06:52:33;;;;;;;;;;;;;;;3.51;53.18;102355.38;5015324;28;19914;-72
2023/02/12 06:55:25;;;;;;;;;;;;;;;3.37;53.26;102356.59;5017286;28;19913;-71
2023/02/12 06:58:15;;;;;;;;;;;;;;;3.70;53.03;102370.44;5014791;28;19913;-72
2023/02/12 07:01:17;;;;;;;;;;;;;;;3.87;53.16;102371.41;5004342;28;19913;-72
2023/02/12 07:04:09;;;;;;;;;;;;;;;3.88;52.63;102366.84;4999329;28;19913;-72
2023/02/12 07:06:58;;;;;;;;;;;;;;;3.81;52.37;102360.72;5005141;28;20386;-72
2023/02/12 07:09:47;;;;;;;;;;;;;;;4.02;51.81;102354.81;4997213;28;19918;-73
2023/02/12 07:12:40;;;;;;;;;;;;;;;3.84;52.01;102358.41;5001206;28;20298;-72
2023/02/12 07:15:32;;;;;;;;;;;;;;;3.71;52.06;102355.09;5004209;28;19917;-72
2023/02/12 07:18:24;;;;;;;;;;;;;;;4.03;53.16;102358.34;5015053;28;19913;-72
2023/02/12 07:21:16;;;;;;;;;;;;;;;3.60;52.94;102372.84;5011688;28;19917;-72
2023/02/12 07:24:06;;;;;;;;;;;;;;;3.43;53.39;102379.91;5008210;28;19913;-72
2023/02/12 07:26:55;;;;;;;;;;;;;;;3.25;54.54;102388.78;5010673;28;19917;-72
2023/02/12 07:29:43;;;;;;;;;;;;;;;3.38;54.76;102391.34;5005052;28;19917;-72
2023/02/12 07:32:35;;;;;;;;;;;;;;;3.40;55.36;102386.53;4995255;28;19914;-72
2023/02/12 07:35:25;;;;;;;;;;;;;;;3.83;55.16;102396.31;4995655;28;19913;-72
2023/02/12 07:38:19;;;;;;;;;;;;;;;4.00;53.85;102399.19;5012067;28;20100;-73
2023/02/12 07:41:14;;;;;;;;;;;;;;;3.83;55.01;102407.91;5014886;28;19913;-73
2023/02/12 07:44:10;;;;;;;;;;;;;;;3.88;55.99;102416.09;4995621;28;19913;-71
2023/02/12 07:47:02;;;;;;;;;;;;;;;4.08;55.11;102426.56;4990614;28;20389;-72
2023/02/12 07:49:54;;;;;;;;;;;;;;;4.14;54.09;102422.97;5028270;28;19917;-72
2023/02/12 07:52:46;;;;;;;;;;;;;;;4.30;53.48;102419.63;5014609;28;20333;-72
2023/02/12 07:55:38;;;;;;;;;;;;;;;4.25;54.18;102422.19;4997137;28;19913;-72
2023/02/12 07:58:25;;;;;;;;;;;;;;;4.32;53.19;102421.25;5012318;28;19917;-73
2023/02/12 08:01:26;;;;;;;;;;;;;;;4.18;53.18;102426.84;5000037;28;19917;-72
2023/02/12 08:04:18;;;;;;;;;;;;;;;4.44;52.63;102425.59;5000506;28;19917;-72
2023/02/12 08:07:10;;;;;;;;;;;;;;;4.53;52.67;102434.16;4999461;28;19917;-72
2023/02/12 08:10:02;;;;;;;;;;;;;;;4.52;52.46;102427.16;5017976;28;19917;-73
2023/02/12 08:12:54;;;;;;;;;;;;;;;4.82;51.82;102438.63;5008291;28;19913;-72
2023/02/12 08:15:46;;;;;;;;;;;;;;;4.68;51.94;102440.72;5018449;28;19913;-73
2023/02/12 08:18:36;;;;;;;;;;;;;;;4.42;53.40;102443.06;4995497;28;19917;-72
2023/02/12 08:21:29;;;;;;;;;;;;;;;4.06;54.36;102446.72;5017639;28;19917;-71
2023/02/12 08:24:21;;;;;;;;;;;;;;;3.94;54.48;102449.34;5020313;28;19913;-71
2023/02/12 08:27:13;;;;;;;;;;;;;;;4.12;54.83;102453.84;5026419;28;19913;-72
2023/02/12 08:30:05;;;;;;;;;;;;;;;4.48;53.85;102463.66;5039780;28;20374;-72
2023/02/12 08:32:54;;;;;;;;;;;;;;;4.23;54.32;102470.03;5020846;28;19914;-73
2023/02/12 08:35:41;;;;;;;;;;;;;;;4.42;53.87;102470.78;4998823;28;19913;-70
2023/02/12 08:38:33;;;;;;;;;;;;;;;4.74;53.06;102474.00;5005032;28;19913;-72
2023/02/12 08:41:26;;;;;;;;;;;;;;;5.04;52.22;102468.50;5025061;28;19917;-72
2023/02/12 08:44:18;;;;;;;;;;;;;;;5.08;51.81;102467.78;5024546;28;19916;-72
2023/02/12 08:47:06;;;;;;;;;;;;;;;4.82;52.46;102476.38;5027603;28;19913;-71
2023/02/12 08:49:55;;;;;;;;;;;;;;;5.04;52.63;102474.72;5007987;28;19921;-73
2023/02/12 08:52:47;;;;;;;;;;;;;;;5.22;52.01;102475.66;5008323;28;19922;-71
2023/02/12 08:55:39;;;;;;;;;;;;;;;5.15;52.65;102473.06;4993327;28;19913;-72
2023/02/12 08:58:31;;;;;;;;;;;;;;;5.29;52.17;102468.25;5003195;28;19913;-71
2023/02/12 09:01:23;;;;;;;;;;;;;;;5.43;51.92;102464.25;4996174;28;19941;-72
2023/02/12 09:04:13;;;;;;;;;;;;;;;5.41;51.41;102455.56;4990352;28;19914;-71
2023/02/12 09:07:03;;;;;;;;;;;;;;;5.37;51.37;102462.50;5005926;28;20226;-71
2023/02/12 09:09:55;;;;;;;;;;;;;;;5.55;50.74;102456.94;4985983;28;19918;-70
2023/02/12 09:12:42;;;;;;;;;;;;;;;5.64;50.20;102458.19;5008577;28;19913;-71
2023/02/12 09:15:37;;;;;;;;;;;;;;;5.62;49.47;102452.22;5012471;28;19914;-72
2023/02/12 09:18:26;;;;;;;;;;;;;;;5.56;50.52;102450.47;5013968;28;19913;-71
2023/02/12 09:21:18;;;;;;;;;;;;;;;5.61;50.38;102447.88;4994177;28;19917;-71
2023/02/12 09:24:10;;;;;;;;;;;;;;;5.76;50.13;102458.97;5021221;28;19913;-70
2023/02/12 09:27:02;;;;;;;;;;;;;;;5.88;49.54;102465.22;5015766;28;19913;-70
2023/02/12 09:29:52;;;;;;;;;;;;;;;6.07;49.21;102473.91;5017033;28;19913;-70
2023/02/12 09:32:44;;;;;;;;;;;;;;;6.19;49.58;102476.56;4997700;28;19917;-71
2023/02/12 09:35:39;;;;;;;;;;;;;;;6.40;48.68;102456.94;5009524;28;19917;-70
2023/02/12 09:38:31;;;;;;;;;;;;;;;6.65;47.91;102465.50;5018658;28;19913;-70
2023/02/12 09:41:37;;;;;;;;;;;;;;;6.59;46.30;102462.94;5010481;28;19913;-70
2023/02/12 09:44:30;;;;;;;;;;;;;;;6.78;46.02;102469.72;5013610;28;20301;-70
2023/02/12 09:47:23;;;;;;;;;;;;;;;6.86;47.36;102475.53;5025747;28;19913;-71
2023/02/12 09:50:25;;;;;;;;;;;;;;;7.13;44.83;102470.25;5024405;28;19917;-70
2023/02/12 09:53:23;;;;;;;;;;;;;;;7.17;44.43;102474.09;5025138;28;19917;-72
2023/02/12 09:56:18;;;;;;;;;;;;;;;7.22;42.97;102465.22;5000383;28;19914;-70
2023/02/12 09:59:10;;;;;;;;;;;;;;;7.13;43.76;102472.16;4998039;28;19913;-70
2023/02/12 10:01:59;;;;;;;;;;;;;;;7.17;43.20;102463.28;5009427;28;19913;-71
2023/02/12 10:04:49;;;;;;;;;;;;;;;7.32;42.34;102468.06;5015212;28;19913;-72
2023/02/12 10:07:45;;;;;;;;;;;;;;;7.48;39.76;102466.38;5005621;28;19913;-71
2023/02/12 10:10:48;;;;;;;;;;;;;;;7.57;39.67;102473.81;5014979;28;19917;-71
2023/02/12 10:14:00;;;;;;;;;;;;;;;7.81;38.93;102479.00;5002568;28;19932;-71
2023/02/12 10:17:05;;;;;;;;;;;;;;;7.82;39.82;102489.56;4965204;28;19913;-71
2023/02/12 10:20:05;;;;;;;;;;;;;;;8.07;39.88;102489.88;4998127;28;20374;-71
2023/02/12 10:23:06;;;;;;;;;;;;;;;8.24;39.35;102487.03;5009036;28;19913;-70
2023/02/12 10:26:05;;;;;;;;;;;;;;;8.41;40.16;102484.25;5012076;28;20382;-70
2023/02/12 10:29:00;;;;;;;;;;;;;;;8.36;40.56;102479.59;5016602;28;19913;-70
2023/02/12 10:31:56;;;;;;;;;;;;;;;8.46;39.99;102487.84;5006802;28;19917;-75
2023/02/12 10:34:48;;;;;;;;;;;;;;;8.56;39.88;102487.91;5011297;28;19996;-70
2023/02/12 10:37:45;;;;;;;;;;;;;;;8.66;39.83;102489.06;4997912;28;19925;-70
2023/02/12 10:40:37;;;;;;;;;;;;;;;8.73;38.96;102493.22;5000992;28;20278;-70
2023/02/12 10:43:29;;;;;;;;;;;;;;;8.93;39.21;102484.41;4993285;28;19914;-70
2023/02/12 10:46:21;;;;;;;;;;;;;;;9.02;39.61;102482.84;4997332;28;19913;-71
2023/02/12 10:49:16;;;;;;;;;;;;;;;9.10;38.21;102466.06;5018731;28;19913;-71
2023/02/12 10:52:14;;;;;;;;;;;;;;;9.09;38.96;102469.88;5005119;28;20393;-70
2023/02/12 10:55:21;;;;;;;;;;;;;;;9.26;38.01;102465.06;5018823;28;19916;-70
2023/02/12 10:58:23;;;;;;;;;;;;;;;9.22;39.18;102474.81;5009148;28;19913;-70
2023/02/12 11:01:32;;;;;;;;;;;;;;;9.34;37.23;102467.31;5011940;28;19913;-71
2023/02/12 11:04:29;;;;;;;;;;;;;;;9.38;35.39;102467.59;5013149;28;19913;-71
2023/02/12 11:07:21;;;;;;;;;;;;;;;9.38;35.08;102462.97;5023028;28;20282;-70
2023/02/12 11:10:21;;;;;;;;;;;;;;;9.52;35.96;102462.47;5016982;28;19914;-70
2023/02/12 11:13:25;;;;;;;;;;;;;;;9.61;35.77;102458.16;5033130;28;19913;-71
2023/02/12 11:16:27;;;;;;;;;;;;;;;9.58;36.89;102467.69;5021187;28;19917;-70
2023/02/12 11:19:22;;;;;;;;;;;;;;;9.81;36.37;102469.09;5005950;28;19913;-70
2023/02/12 11:22:17;;;;;;;;;;;;;;;9.87;36.78;102473.47;5000881;28;20305;-70
2023/02/12 11:25:15;;;;;;;;;;;;;;;9.81;37.03;102471.81;5013289;28;19914;-70
2023/02/12 11:28:11;;;;;;;;;;;;;;;9.77;37.07;102476.16;5009815;28;19913;-70
2023/02/12 11:31:03;;;;;;;;;;;;;;;10.07;37.70;102476.25;5008684;28;19917;-70
2023/02/12 11:34:15;;;;;;;;;;;;;;;10.07;38.26;102472.72;5003975;28;19913;-71
2023/02/12 11:37:13;;;;;;;;;;;;;;;10.13;37.16;102475.19;5011702;28;20374;-70
2023/02/12 11:40:05;;;;;;;;;;;;;;;10.24;36.65;102482.31;4997913;28;19914;-70
2023/02/12 11:42:57;;;;;;;;;;;;;;;10.03;36.54;102469.72;4998278;28;19915;-70
2023/02/12 11:45:52;;;;;;;;;;;;;;;10.19;36.75;102485.00;5006945;28;20390;-70
2023/02/12 11:48:46;;;;;;;;;;;;;;;10.23;36.11;102488.81;5005213;28;19913;-70
2023/02/12 11:51:39;;;;;;;;;;;;;;;10.32;34.83;102480.94;5012130;28;20394;-70
2023/02/12 11:54:32;;;;;;;;;;;;;;;10.37;35.58;102486.38;4999197;28;19913;-71
2023/02/12 11:57:40;;;;;;;;;;;;;;;10.39;35.81;102495.09;5005513;28;19913;-71
2023/02/12 12:00:34;;;;;;;;;;;;;;;10.54;36.10;102497.84;5008487;28;19921;-70
2023/02/12 12:03:35;;;;;;;;;;;;;;;10.51;34.40;102478.53;5007460;28;19917;-70
2023/02/12 12:06:28;;;;;;;;;;;;;;;10.71;33.59;102479.34;5008600;28;19921;-70
2023/02/12 12:09:32;;;;;;;;;;;;;;;10.79;34.11;102480.69;4997726;28;19914;-70
2023/02/12 12:12:24;;;;;;;;;;;;;;;10.54;33.94;102478.78;5008519;28;20301;-70
2023/02/12 12:22:06;;;;;;;;;;;;;;;10.82;35.44;102465.72;5010457;28;19922;-70
2023/02/12 12:25:05;;;;;;;;;;;;;;;10.91;35.13;102453.19;5003461;28;19917;-71
2023/02/12 12:28:05;;;;;;;;;;;;;;;11.03;34.13;102461.88;5012107;28;19913;-70
2023/02/12 12:30:57;;;;;;;;;;;;;;;11.13;34.98;102468.09;5006019;28;19922;-72
2023/02/12 12:34:06;;;;;;;;;;;;;;;11.38;34.34;102453.59;5003973;28;20293;-70
2023/02/12 12:36:58;;;;;;;;;;;;;;;11.48;33.94;102455.47;5015672;28;19913;-71
2023/02/12 12:39:50;;;;;;;;;;;;;;;11.45;34.85;102439.69;5004665;28;19913;-70
2023/02/12 12:42:44;;;;;;;;;;;;;;;11.45;34.87;102442.41;5004505;28;19913;-71
2023/02/12 12:46:06;;;;;;;;;;;;;;;11.46;34.94;102450.31;4993788;28;19917;-70
2023/02/12 12:48:58;;;;;;;;;;;;;;;11.57;34.67;102456.53;4955870;29;20303;-70
2023/02/12 12:52:04;;;;;;;;;;;;;;;11.70;34.90;102453.19;5010018;28;19918;-70
2023/02/12 12:55:09;;;;;;;;;;;;;;;11.79;35.27;102451.53;5009807;28;19913;-72
2023/02/12 12:58:04;;;;;;;;;;;;;;;11.84;34.61;102456.97;5020432;28;19913;-70
2023/02/12 13:01:06;;;;;;;;;;;;;;;11.92;34.52;102450.94;5028306;28;19917;-71
2023/02/12 13:04:14;;;;;;;;;;;;;;;12.10;34.70;102446.72;5013849;28;19913;-71
2023/02/12 13:07:07;;;;;;;;;;;;;;;12.17;34.53;102454.59;5007505;28;19918;-70
2023/02/12 13:10:04;;;;;;;;;;;;;;;12.34;33.83;102458.56;5010097;28;20298;-70
2023/02/12 13:12:57;;;;;;;;;;;;;;;12.30;34.43;102464.88;5009317;28;20298;-71
2023/02/12 13:16:05;;;;;;;;;;;;;;;12.27;34.32;102469.00;5012175;28;19917;-71
2023/02/12 13:18:57;;;;;;;;;;;;;;;12.50;34.14;102464.72;4997906;28;19913;-70
2023/02/12 13:22:02;;;;;;;;;;;;;;;12.37;34.51;102454.47;5005854;28;19917;-71
2023/02/12 13:24:56;;;;;;;;;;;;;;;12.60;34.03;102461.06;5013098;28;19921;-71
2023/02/12 13:27:48;;;;;;;;;;;;;;;12.47;33.76;102459.84;5008105;28;19914;-70
2023/02/12 13:30:43;;;;;;;;;;;;;;;12.62;34.02;102459.72;5007282;28;19921;-70
2023/02/12 13:34:05;;;;;;;;;;;;;;;12.70;34.02;102450.06;4995005;28;19917;-71
2023/02/12 13:36:53;;;;;;;;;;;;;;;12.80;32.88;102455.44;4965694;28;20374;-71
2023/02/12 13:39:44;;;;;;;;;;;;;;;12.91;33.77;102456.16;5012585;28;19913;-71
2023/02/12 13:42:41;;;;;;;;;;;;;;;13.09;32.97;102449.97;5029608;28;19922;-70
2023/02/12 13:45:43;;;;;;;;;;;;;;;13.19;32.29;102447.16;5014482;28;20575;-71
2023/02/12 13:48:58;;;;;;;;;;;;;;;13.36;30.64;102447.50;4998932;28;20297;-70
2023/02/12 13:51:56;;;;;;;;;;;;;;;13.23;29.65;102446.28;5010878;28;20306;-70
2023/02/12 13:54:50;;;;;;;;;;;;;;;13.54;27.66;102441.28;5000232;28;19913;-71
2023/02/12 13:57:40;;;;;;;;;;;;;;;13.50;25.88;102450.38;5006422;28;19921;-71
2023/02/12 14:00:49;;;;;;;;;;;;;;;13.55;24.92;102450.28;5013287;28;19921;-71
2023/02/12 14:03:44;;;;;;;;;;;;;;;13.77;24.48;102444.25;5010438;28;19913;-71
2023/02/12 14:06:34;;;;;;;;;;;;;;;13.63;24.17;102442.25;5026832;28;19913;-70
2023/02/12 14:09:28;;;;;;;;;;;;;;;13.58;24.96;102446.97;5018526;28;19913;-71
2023/02/12 14:12:24;;;;;;;;;;;;;;;13.67;23.88;102450.66;5000108;28;19917;-70
2023/02/12 14:15:21;;;;;;;;;;;;;;;13.65;23.52;102447.44;4991070;28;19914;-70
2023/02/12 14:18:26;;;;;;;;;;;;;;;13.79;24.26;102451.06;4999008;28;19914;-70
2023/02/12 14:21:18;;;;;;;;;;;;;;;13.73;22.84;102440.47;5003155;28;19913;-71
2023/02/12 14:24:27;;;;;;;;;;;;;;;13.70;23.16;102456.38;5016940;28;19913;-70
2023/02/12 14:27:36;;;;;;;;;;;;;;;13.73;23.00;102454.16;5012779;28;20329;-70
2023/02/12 14:30:29;;;;;;;;;;;;;;;13.66;23.90;102451.81;5016948;28;19917;-70
2023/02/12 14:33:26;;;;;;;;;;;;;;;13.70;23.49;102456.38;5021184;28;20514;-70
2023/02/12 14:36:40;;;;;;;;;;;;;;;13.62;24.24;102459.75;5014594;28;19917;-70
2023/02/12 14:39:32;;;;;;;;;;;;;;;13.56;24.92;102465.59;4986790;28;19918;-70
2023/02/12 14:42:27;;;;;;;;;;;;;;;13.46;24.90;102469.25;5026445;28;19912;-70
2023/02/12 14:45:38;;;;;;;;;;;;;;;13.52;25.32;102470.81;5029069;28;20409;-71
2023/02/12 14:48:49;;;;;;;;;;;;;;;13.43;25.57;102466.28;5019956;28;19913;-70
2023/02/12 14:51:50;;;;;;;;;;;;;;;13.45;26.01;102475.84;4995536;28;19918;-77
2023/02/12 14:54:46;;;;;;;;;;;;;;;13.36;26.15;102474.81;4995267;28;19914;-71
2023/02/12 14:57:39;;;;;;;;;;;;;;;13.31;26.45;102485.03;4994871;28;19913;-70
2023/02/12 15:00:47;;;;;;;;;;;;;;;13.28;26.81;102475.47;4999011;28;19921;-72
2023/02/12 15:03:43;;;;;;;;;;;;;;;13.22;27.02;102484.81;5034442;28;19921;-70
2023/02/12 15:06:38;;;;;;;;;;;;;;;13.20;27.22;102495.25;5033348;28;19913;-72
2023/02/12 15:09:35;;;;;;;;;;;;;;;13.19;27.71;102488.16;5026141;28;19917;-71
2023/02/12 15:12:33;;;;;;;;;;;;;;;13.16;27.82;102492.25;5021029;28;19917;-70
2023/02/12 15:15:24;;;;;;;;;;;;;;;13.10;28.29;102495.31;5034730;28;20298;-70
2023/02/12 15:18:24;;;;;;;;;;;;;;;13.05;28.53;102490.72;5020032;28;20281;-70